Time;durP1;ratioP1;P1;durP2;ratioP2;P2;SDS_P1;SDS_P2;PMS_P1;PMS_P2;Temp;Humidity;BMP_temperature;BMP_pressure;BME280_temperature;BME280_humidity;BME280_pressure;Samples;Min_cycle;Max_cycle;Signal;HPM_P1;HPM_P2
2024/03/11 00:02:27;;;;;;;0.30;0.30;;;;;;;;;;4999873;28;20439;-77
2024/03/11 00:04:57;;;;;;;0.30;0.30;;;;;;;;;;4999046;28;20596;-77
2024/03/11 00:07:23;;;;;;;0.27;0.27;;;;;;;;;;5001257;28;20312;-76
2024/03/11 00:09:50;;;;;;;0.30;0.30;;;;;;;;;;5004227;28;20239;-77
2024/03/11 00:12:17;;;;;;;0.30;0.30;;;;;;;;;;4999109;28;20236;-78
2024/03/11 00:14:47;;;;;;;0.30;0.30;;;;;;;;;;4995661;28;20230;-78
2024/03/11 00:17:14;;;;;;;0.30;0.30;;;;;;;;;;4995641;28;20734;-77
2024/03/11 00:19:41;;;;;;;0.30;0.30;;;;;;;;;;5000805;28;20244;-77
2024/03/11 00:22:08;;;;;;;0.30;0.30;;;;;;;;;;4998442;28;20243;-76
2024/03/11 00:24:35;;;;;;;0.30;0.30;;;;;;;;;;4995081;28;20237;-76
2024/03/11 00:27:08;;;;;;;0.30;0.30;;;;;;;;;;4998031;28;20243;-77
2024/03/11 00:29:37;;;;;;;0.30;0.30;;;;;;;;;;4999471;28;20283;-77
2024/03/11 00:32:07;;;;;;;0.30;0.30;;;;;;;;;;4996731;28;20316;-76
2024/03/11 00:34:34;;;;;;;0.27;0.27;;;;;;;;;;4993270;28;20229;-77
2024/03/11 00:37:01;;;;;;;0.30;0.30;;;;;;;;;;4995274;28;20235;-79
2024/03/11 00:39:28;;;;;;;0.30;0.30;;;;;;;;;;5010379;28;20232;-77
2024/03/11 00:41:55;;;;;;;0.30;0.30;;;;;;;;;;4998491;28;20271;-77
2024/03/11 00:44:21;;;;;;;0.20;0.20;;;;;;;;;;4998821;28;20799;-77
2024/03/11 00:46:49;;;;;;;0.30;0.30;;;;;;;;;;4996222;28;20229;-78
2024/03/11 00:49:21;;;;;;;0.30;0.30;;;;;;;;;;4997895;28;20232;-77
2024/03/11 00:51:48;;;;;;;0.30;0.30;;;;;;;;;;5016055;28;20235;-77
2024/03/11 00:54:15;;;;;;;0.30;0.30;;;;;;;;;;5011421;28;20638;-77
2024/03/11 00:56:42;;;;;;;0.30;0.30;;;;;;;;;;4995498;28;20224;-78
2024/03/11 00:59:09;;;;;;;0.30;0.30;;;;;;;;;;4995440;28;20316;-77
2024/03/11 01:01:36;;;;;;;0.30;0.30;;;;;;;;;;4994320;28;20239;-76
2024/03/11 01:04:03;;;;;;;0.20;0.20;;;;;;;;;;4999483;28;20343;-77
2024/03/11 01:06:30;;;;;;;0.20;0.20;;;;;;;;;;5012716;28;20752;-76
2024/03/11 01:08:57;;;;;;;0.30;0.30;;;;;;;;;;5001040;28;20229;-76
2024/03/11 01:11:23;;;;;;;0.20;0.20;;;;;;;;;;4999795;28;20239;-76
2024/03/11 01:13:50;;;;;;;0.20;0.20;;;;;;;;;;4999580;28;20588;-77
2024/03/11 01:16:17;;;;;;;0.30;0.30;;;;;;;;;;4999998;28;20221;-76
2024/03/11 01:18:45;;;;;;;0.30;0.30;;;;;;;;;;4998177;28;20851;-76
2024/03/11 01:21:13;;;;;;;0.30;0.30;;;;;;;;;;4999034;28;20243;-77
2024/03/11 01:23:40;;;;;;;0.30;0.30;;;;;;;;;;5020839;28;20229;-76
2024/03/11 01:26:07;;;;;;;0.30;0.30;;;;;;;;;;5000293;28;20599;-79
2024/03/11 01:28:33;;;;;;;0.30;0.30;;;;;;;;;;5000016;28;20730;-77
2024/03/11 01:31:00;;;;;;;0.20;0.20;;;;;;;;;;4998027;28;20233;-77
2024/03/11 01:33:27;;;;;;;0.30;0.30;;;;;;;;;;5001572;28;20239;-77
2024/03/11 01:35:54;;;;;;;0.30;0.30;;;;;;;;;;5001193;28;20327;-77
2024/03/11 01:38:21;;;;;;;0.30;0.30;;;;;;;;;;5009475;28;20231;-77
2024/03/11 01:40:47;;;;;;;0.30;0.30;;;;;;;;;;5008785;28;20248;-77
2024/03/11 01:43:17;;;;;;;0.60;0.60;;;;;;;;;;4999611;28;20725;-77
2024/03/11 01:45:43;;;;;;;0.30;0.30;;;;;;;;;;5000618;28;20232;-76
2024/03/11 01:48:10;;;;;;;0.47;0.47;;;;;;;;;;5000603;28;20703;-77
2024/03/11 01:50:37;;;;;;;0.30;0.30;;;;;;;;;;5017134;28;20307;-77
2024/03/11 01:53:04;;;;;;;0.30;0.30;;;;;;;;;;5000659;28;20251;-77
2024/03/11 01:55:31;;;;;;;0.30;0.30;;;;;;;;;;5001641;28;20324;-77
2024/03/11 01:58:01;;;;;;;0.30;0.30;;;;;;;;;;5000188;28;20256;-79
2024/03/11 02:00:28;;;;;;;0.30;0.30;;;;;;;;;;5013953;28;20737;-77
2024/03/11 02:02:55;;;;;;;0.30;0.30;;;;;;;;;;4998652;28;21214;-77
2024/03/11 02:05:25;;;;;;;0.30;0.30;;;;;;;;;;5001036;28;20591;-77
2024/03/11 02:08:02;;;;;;;0.30;0.30;;;;;;;;;;5001788;28;20690;-77
2024/03/11 02:10:29;;;;;;;0.30;0.30;;;;;;;;;;5001685;28;20228;-77
2024/03/11 02:12:58;;;;;;;0.30;0.30;;;;;;;;;;5003023;28;20240;-77
2024/03/11 02:15:28;;;;;;;0.30;0.30;;;;;;;;;;4999935;28;20228;-78
2024/03/11 02:17:55;;;;;;;0.30;0.30;;;;;;;;;;4998538;28;20224;-77
2024/03/11 02:20:22;;;;;;;0.30;0.30;;;;;;;;;;4997383;28;20240;-76
2024/03/11 02:22:54;;;;;;;0.30;0.30;;;;;;;;;;5000045;28;20898;-78
2024/03/11 02:25:26;;;;;;;0.30;0.30;;;;;;;;;;5016505;28;20229;-77
2024/03/11 02:27:55;;;;;;;0.30;0.30;;;;;;;;;;4998013;28;20239;-77
2024/03/11 02:30:21;;;;;;;0.30;0.30;;;;;;;;;;5000882;28;20237;-77
2024/03/11 02:32:48;;;;;;;0.30;0.30;;;;;;;;;;4997123;28;20236;-77
2024/03/11 02:35:15;;;;;;;0.30;0.30;;;;;;;;;;4999946;28;20649;-77
2024/03/11 02:37:44;;;;;;;0.30;0.30;;;;;;;;;;5001858;28;20228;-77
2024/03/11 02:40:13;;;;;;;0.20;0.20;;;;;;;;;;5000870;28;20244;-77
2024/03/11 02:42:40;;;;;;;0.30;0.30;;;;;;;;;;4998564;28;20229;-78
2024/03/11 02:45:11;;;;;;;0.30;0.30;;;;;;;;;;4998953;28;20229;-77
2024/03/11 02:47:38;;;;;;;0.30;0.30;;;;;;;;;;4998777;28;20232;-76
2024/03/11 02:50:06;;;;;;;0.20;0.20;;;;;;;;;;5012403;28;20235;-77
2024/03/11 02:52:33;;;;;;;0.27;0.27;;;;;;;;;;4998701;28;20312;-77
2024/03/11 02:55:01;;;;;;;0.23;0.23;;;;;;;;;;4998192;28;20235;-77
2024/03/11 02:57:28;;;;;;;0.30;0.30;;;;;;;;;;4996040;28;20232;-77
2024/03/11 02:59:55;;;;;;;0.30;0.30;;;;;;;;;;4998427;28;20234;-77
2024/03/11 03:02:23;;;;;;;0.20;0.20;;;;;;;;;;4994678;28;20232;-77
2024/03/11 03:04:50;;;;;;;0.30;0.30;;;;;;;;;;4996565;28;20233;-81
2024/03/11 03:07:17;;;;;;;0.30;0.30;;;;;;;;;;4999059;28;20233;-77
2024/03/11 03:09:43;;;;;;;0.20;0.20;;;;;;;;;;4998768;28;20551;-78
2024/03/11 03:12:10;;;;;;;0.30;0.30;;;;;;;;;;4998577;28;20714;-77
2024/03/11 03:14:38;;;;;;;0.50;0.50;;;;;;;;;;4995353;28;20613;-77
2024/03/11 03:17:05;;;;;;;0.27;0.27;;;;;;;;;;4999345;28;20602;-77
2024/03/11 03:19:31;;;;;;;0.20;0.20;;;;;;;;;;4998568;28;20283;-77
2024/03/11 03:21:57;;;;;;;0.30;0.30;;;;;;;;;;4996455;28;20320;-77
2024/03/11 03:24:24;;;;;;;0.33;0.33;;;;;;;;;;5000194;28;20225;-77
2024/03/11 03:26:51;;;;;;;0.20;0.20;;;;;;;;;;4998070;28;20229;-77
2024/03/11 03:29:18;;;;;;;0.30;0.30;;;;;;;;;;4998943;28;20235;-77
2024/03/11 03:31:45;;;;;;;0.37;0.37;;;;;;;;;;4997860;28;20311;-77
2024/03/11 03:34:13;;;;;;;0.27;0.27;;;;;;;;;;4995610;28;20233;-77
2024/03/11 03:36:39;;;;;;;0.30;0.30;;;;;;;;;;4998769;28;20268;-77
2024/03/11 03:39:08;;;;;;;0.20;0.20;;;;;;;;;;5000358;28;20229;-77
2024/03/11 03:41:37;;;;;;;0.20;0.20;;;;;;;;;;4999666;28;20316;-77
2024/03/11 03:44:04;;;;;;;0.20;0.20;;;;;;;;;;5000951;28;20324;-77
2024/03/11 03:46:30;;;;;;;0.30;0.30;;;;;;;;;;4999020;28;20653;-77
2024/03/11 03:48:58;;;;;;;0.40;0.40;;;;;;;;;;4999636;28;20228;-77
2024/03/11 03:51:25;;;;;;;0.20;0.20;;;;;;;;;;5000665;28;20252;-77
2024/03/11 03:53:51;;;;;;;0.20;0.20;;;;;;;;;;4997481;28;20313;-77
2024/03/11 03:56:18;;;;;;;0.30;0.30;;;;;;;;;;4996112;28;20303;-77
2024/03/11 03:58:44;;;;;;;0.30;0.30;;;;;;;;;;4995506;28;20283;-76
2024/03/11 04:01:11;;;;;;;0.20;0.20;;;;;;;;;;4998123;28;20232;-77
2024/03/11 04:03:38;;;;;;;0.20;0.20;;;;;;;;;;4996735;28;20411;-77
2024/03/11 04:06:07;;;;;;;0.30;0.30;;;;;;;;;;5000414;28;20244;-76
2024/03/11 04:08:33;;;;;;;0.20;0.20;;;;;;;;;;4997530;28;20240;-77
2024/03/11 04:11:00;;;;;;;0.30;0.30;;;;;;;;;;5007592;28;20245;-77
2024/03/11 04:13:27;;;;;;;0.40;0.40;;;;;;;;;;4995573;28;20280;-77
2024/03/11 04:15:55;;;;;;;0.30;0.30;;;;;;;;;;4999283;28;20237;-77
2024/03/11 04:18:23;;;;;;;0.20;0.20;;;;;;;;;;5005914;28;20234;-78
2024/03/11 04:20:55;;;;;;;0.20;0.20;;;;;;;;;;5001555;28;20233;-77
2024/03/11 04:23:28;;;;;;;0.27;0.27;;;;;;;;;;4999159;28;20307;-77
2024/03/11 04:25:55;;;;;;;0.20;0.20;;;;;;;;;;4999996;28;20282;-76
2024/03/11 04:28:21;;;;;;;0.30;0.30;;;;;;;;;;4997142;28;20239;-76
2024/03/11 04:30:48;;;;;;;0.20;0.20;;;;;;;;;;4996519;28;20254;-77
2024/03/11 04:33:17;;;;;;;0.30;0.30;;;;;;;;;;5011188;28;20244;-77
2024/03/11 04:35:44;;;;;;;0.20;0.20;;;;;;;;;;4998229;28;20717;-78
2024/03/11 04:38:15;;;;;;;0.20;0.20;;;;;;;;;;4995838;28;20315;-77
2024/03/11 04:40:47;;;;;;;0.30;0.30;;;;;;;;;;4996007;28;20283;-78
2024/03/11 04:43:14;;;;;;;0.30;0.30;;;;;;;;;;4998493;28;20279;-77
2024/03/11 04:45:40;;;;;;;0.27;0.27;;;;;;;;;;4996697;28;20225;-76
2024/03/11 04:48:09;;;;;;;0.30;0.30;;;;;;;;;;4997564;28;20242;-77
2024/03/11 04:50:38;;;;;;;0.20;0.20;;;;;;;;;;4994909;28;20232;-77
2024/03/11 04:53:09;;;;;;;0.20;0.20;;;;;;;;;;4997068;28;20235;-78
2024/03/11 04:55:38;;;;;;;0.30;0.30;;;;;;;;;;4997327;28;20750;-78
2024/03/11 04:58:05;;;;;;;0.20;0.20;;;;;;;;;;4998946;28;20593;-78
2024/03/11 05:00:31;;;;;;;0.20;0.20;;;;;;;;;;4999059;28;20308;-78
2024/03/11 05:03:00;;;;;;;0.20;0.20;;;;;;;;;;4999454;28;20291;-78
2024/03/11 05:05:31;;;;;;;0.30;0.30;;;;;;;;;;4998111;28;20308;-78
2024/03/11 05:07:58;;;;;;;0.30;0.30;;;;;;;;;;5003231;28;20228;-78
2024/03/11 05:10:26;;;;;;;0.40;0.40;;;;;;;;;;5003065;28;20236;-77
2024/03/11 05:12:52;;;;;;;0.27;0.27;;;;;;;;;;5016270;28;20311;-77
2024/03/11 05:15:19;;;;;;;0.30;0.30;;;;;;;;;;5001790;28;20643;-77
2024/03/11 05:17:46;;;;;;;0.30;0.30;;;;;;;;;;5005349;28;20229;-77
2024/03/11 05:20:18;;;;;;;0.20;0.20;;;;;;;;;;5001713;28;20850;-77
2024/03/11 05:22:46;;;;;;;0.30;0.30;;;;;;;;;;5003454;28;20661;-77
2024/03/11 05:25:14;;;;;;;0.30;0.30;;;;;;;;;;5003421;28;20260;-76
2024/03/11 05:27:43;;;;;;;0.20;0.20;;;;;;;;;;5019130;28;20225;-76
2024/03/11 05:30:09;;;;;;;0.30;0.30;;;;;;;;;;5003335;28;20294;-76
2024/03/11 05:32:37;;;;;;;0.20;0.20;;;;;;;;;;5002794;28;20702;-76
2024/03/11 05:35:03;;;;;;;0.20;0.20;;;;;;;;;;5003778;28;20237;-77
2024/03/11 05:37:35;;;;;;;0.30;0.30;;;;;;;;;;5003958;28;20253;-77
2024/03/11 05:40:05;;;;;;;0.37;0.37;;;;;;;;;;5002724;28;20237;-77
2024/03/11 05:42:33;;;;;;;0.20;0.20;;;;;;;;;;5002647;28;20315;-75
2024/03/11 05:45:01;;;;;;;0.27;0.27;;;;;;;;;;5003016;28;21169;-76
2024/03/11 05:47:28;;;;;;;0.30;0.30;;;;;;;;;;5001857;28;20237;-76
2024/03/11 05:49:55;;;;;;;0.30;0.30;;;;;;;;;;5002258;28;20660;-77
2024/03/11 05:52:24;;;;;;;0.20;0.20;;;;;;;;;;5000546;28;20232;-76
2024/03/11 05:54:53;;;;;;;0.20;0.20;;;;;;;;;;5002669;28;20228;-76
2024/03/11 05:57:26;;;;;;;0.40;0.40;;;;;;;;;;5004413;28;20880;-76
2024/03/11 05:59:53;;;;;;;0.27;0.27;;;;;;;;;;5003406;28;20229;-76
2024/03/11 06:02:20;;;;;;;0.20;0.20;;;;;;;;;;5003987;28;20241;-76
2024/03/11 06:04:47;;;;;;;0.30;0.30;;;;;;;;;;5002330;28;20319;-76
2024/03/11 06:07:19;;;;;;;0.23;0.23;;;;;;;;;;5003890;28;20233;-76
2024/03/11 06:09:47;;;;;;;0.27;0.27;;;;;;;;;;5004657;28;20229;-77
2024/03/11 06:12:13;;;;;;;0.30;0.30;;;;;;;;;;5003441;28;20235;-76
2024/03/11 06:14:40;;;;;;;0.20;0.20;;;;;;;;;;5002920;28;20229;-76
2024/03/11 06:17:10;;;;;;;0.20;0.20;;;;;;;;;;5002780;28;20243;-76
2024/03/11 06:19:40;;;;;;;0.30;0.30;;;;;;;;;;5002850;28;20221;-76
2024/03/11 06:22:08;;;;;;;0.20;0.20;;;;;;;;;;4999198;28;20230;-77
2024/03/11 06:24:35;;;;;;;0.20;0.20;;;;;;;;;;5001908;28;20780;-77
2024/03/11 06:27:01;;;;;;;0.30;0.30;;;;;;;;;;5003944;28;20236;-77
2024/03/11 06:29:28;;;;;;;0.67;0.50;;;;;;;;;;5005653;28;20237;-76
2024/03/11 06:31:55;;;;;;;0.20;0.20;;;;;;;;;;5004152;28;20756;-77
2024/03/11 06:34:23;;;;;;;0.20;0.20;;;;;;;;;;5005228;28;20225;-76
2024/03/11 06:36:50;;;;;;;0.20;0.20;;;;;;;;;;5009870;28;20249;-76
2024/03/11 06:39:18;;;;;;;0.20;0.20;;;;;;;;;;5002223;28;20738;-75
2024/03/11 06:41:45;;;;;;;0.20;0.20;;;;;;;;;;5002238;28;20721;-76
2024/03/11 06:44:12;;;;;;;0.30;0.30;;;;;;;;;;5002028;28;20227;-76
2024/03/11 06:46:47;;;;;;;0.30;0.30;;;;;;;;;;5000756;28;20702;-80
2024/03/11 06:49:14;;;;;;;0.20;0.20;;;;;;;;;;5002884;28;20786;-80
2024/03/11 06:51:40;;;;;;;0.20;0.20;;;;;;;;;;5004317;28;20227;-78
2024/03/11 06:54:07;;;;;;;0.20;0.20;;;;;;;;;;5022944;28;20235;-79
2024/03/11 06:56:33;;;;;;;0.20;0.20;;;;;;;;;;5027170;28;20217;-78
2024/03/11 06:59:00;;;;;;;0.30;0.30;;;;;;;;;;5008397;28;20229;-77
2024/03/11 07:01:29;;;;;;;0.20;0.20;;;;;;;;;;5001076;28;20220;-77
2024/03/11 07:03:56;;;;;;;0.20;0.20;;;;;;;;;;5000864;28;20279;-77
2024/03/11 07:06:23;;;;;;;0.30;0.30;;;;;;;;;;5001310;28;20672;-77
2024/03/11 07:08:50;;;;;;;0.20;0.20;;;;;;;;;;5000524;28;20228;-78
2024/03/11 07:11:19;;;;;;;0.83;0.83;;;;;;;;;;5001704;28;20245;-77
2024/03/11 07:13:45;;;;;;;0.27;0.27;;;;;;;;;;5000591;28;20225;-77
2024/03/11 07:16:12;;;;;;;0.27;0.27;;;;;;;;;;5000526;28;20234;-78
2024/03/11 07:18:41;;;;;;;0.23;0.23;;;;;;;;;;5001044;28;20252;-77
2024/03/11 07:21:09;;;;;;;0.30;0.30;;;;;;;;;;4999125;28;20248;-77
2024/03/11 07:23:35;;;;;;;0.20;0.20;;;;;;;;;;4999756;28;20329;-77
2024/03/11 07:26:02;;;;;;;0.20;0.20;;;;;;;;;;4999057;28;20229;-78
2024/03/11 07:28:29;;;;;;;0.30;0.30;;;;;;;;;;5001091;28;20311;-78
2024/03/11 07:30:56;;;;;;;0.30;0.30;;;;;;;;;;4999835;28;20240;-77
2024/03/11 07:33:22;;;;;;;0.50;0.50;;;;;;;;;;5000010;28;20235;-79
2024/03/11 07:35:51;;;;;;;0.30;0.30;;;;;;;;;;5001220;28;20320;-76
2024/03/11 07:38:18;;;;;;;0.30;0.30;;;;;;;;;;4999817;28;20225;-77
2024/03/11 07:40:45;;;;;;;0.30;0.30;;;;;;;;;;4999230;28;20229;-77
2024/03/11 07:43:13;;;;;;;0.30;0.30;;;;;;;;;;4999084;28;20230;-77
2024/03/11 07:45:40;;;;;;;0.30;0.30;;;;;;;;;;4999929;28;20590;-77
2024/03/11 07:48:12;;;;;;;0.20;0.20;;;;;;;;;;4999257;28;20267;-77
2024/03/11 07:50:45;;;;;;;0.30;0.30;;;;;;;;;;5064690;27;20901;-77
2024/03/11 07:53:12;;;;;;;0.20;0.20;;;;;;;;;;5047365;28;20223;-79
2024/03/11 07:55:39;;;;;;;0.30;0.30;;;;;;;;;;5061099;28;20805;-77
2024/03/11 07:58:07;;;;;;;0.30;0.30;;;;;;;;;;5056124;28;20711;-78
2024/03/11 08:00:36;;;;;;;0.30;0.30;;;;;;;;;;5054184;28;20229;-77
2024/03/11 08:03:03;;;;;;;0.30;0.30;;;;;;;;;;5054829;28;20250;-77
2024/03/11 08:05:30;;;;;;;0.30;0.30;;;;;;;;;;5054207;28;20742;-77
2024/03/11 08:07:58;;;;;;;0.30;0.30;;;;;;;;;;5060948;28;21885;-77
2024/03/11 08:10:25;;;;;;;0.30;0.30;;;;;;;;;;5058516;28;20309;-79
2024/03/11 08:12:53;;;;;;;0.30;0.30;;;;;;;;;;5053373;28;20300;-78
2024/03/11 08:15:20;;;;;;;0.30;0.30;;;;;;;;;;5051905;28;20234;-78
2024/03/11 08:17:50;;;;;;;0.20;0.20;;;;;;;;;;5054016;28;20231;-77
2024/03/11 08:20:20;;;;;;;0.30;0.30;;;;;;;;;;5062629;28;20576;-78
2024/03/11 08:22:49;;;;;;;0.30;0.30;;;;;;;;;;5054600;28;20439;-78
2024/03/11 08:25:18;;;;;;;0.20;0.20;;;;;;;;;;5055417;28;20237;-77
2024/03/11 08:27:44;;;;;;;0.30;0.30;;;;;;;;;;5071216;28;20230;-78
2024/03/11 08:30:11;;;;;;;0.30;0.30;;;;;;;;;;5074734;28;20696;-77
2024/03/11 08:32:40;;;;;;;0.30;0.30;;;;;;;;;;5072535;28;20234;-77
2024/03/11 08:35:07;;;;;;;0.30;0.30;;;;;;;;;;5074718;28;20580;-78
2024/03/11 08:37:34;;;;;;;0.40;0.40;;;;;;;;;;5071112;28;20231;-77
2024/03/11 08:40:04;;;;;;;0.30;0.30;;;;;;;;;;5075919;28;20225;-78
2024/03/11 08:42:30;;;;;;;0.30;0.30;;;;;;;;;;5071878;28;20267;-77
2024/03/11 08:44:57;;;;;;;0.30;0.30;;;;;;;;;;5073313;28;20607;-77
2024/03/11 08:47:24;;;;;;;0.30;0.30;;;;;;;;;;5072800;28;20245;-77
2024/03/11 08:49:50;;;;;;;0.30;0.30;;;;;;;;;;5072619;28;20711;-78
2024/03/11 08:52:17;;;;;;;0.30;0.30;;;;;;;;;;5073795;28;20254;-77
2024/03/11 08:54:43;;;;;;;0.20;0.20;;;;;;;;;;5071775;28;20703;-78
2024/03/11 08:57:15;;;;;;;0.30;0.30;;;;;;;;;;5075514;28;20989;-77
2024/03/11 08:59:42;;;;;;;0.20;0.20;;;;;;;;;;5071447;28;20222;-78
2024/03/11 09:02:09;;;;;;;0.30;0.30;;;;;;;;;;5060679;28;20234;-77
2024/03/11 09:04:36;;;;;;;0.20;0.20;;;;;;;;;;5058816;28;20254;-78
2024/03/11 09:07:04;;;;;;;0.30;0.30;;;;;;;;;;5060265;28;20230;-77
2024/03/11 09:09:32;;;;;;;0.30;0.30;;;;;;;;;;5060315;28;20223;-77
2024/03/11 09:12:00;;;;;;;0.30;0.30;;;;;;;;;;5066670;28;20231;-77
2024/03/11 09:14:31;;;;;;;0.30;0.30;;;;;;;;;;5059875;28;20718;-77
2024/03/11 09:17:01;;;;;;;0.20;0.20;;;;;;;;;;5064936;28;20482;-77
2024/03/11 09:19:28;;;;;;;0.30;0.30;;;;;;;;;;5064733;28;20221;-78
2024/03/11 09:21:55;;;;;;;0.30;0.30;;;;;;;;;;5059915;28;20224;-77
2024/03/11 09:24:22;;;;;;;0.30;0.30;;;;;;;;;;5061031;28;20264;-77
2024/03/11 09:26:51;;;;;;;0.30;0.30;;;;;;;;;;5061856;28;20315;-78
2024/03/11 09:29:19;;;;;;;0.30;0.30;;;;;;;;;;5061822;28;20241;-77
2024/03/11 09:31:46;;;;;;;0.30;0.30;;;;;;;;;;5061953;28;20238;-78
2024/03/11 09:34:17;;;;;;;0.30;0.30;;;;;;;;;;5057715;28;20234;-77
2024/03/11 09:36:44;;;;;;;0.30;0.30;;;;;;;;;;5059806;28;20784;-78
2024/03/11 09:39:14;;;;;;;0.20;0.20;;;;;;;;;;5067107;28;20303;-77
2024/03/11 09:41:42;;;;;;;0.30;0.30;;;;;;;;;;5059868;28;20228;-77
2024/03/11 09:44:17;;;;;;;0.30;0.30;;;;;;;;;;5056898;28;20636;-78
2024/03/11 09:46:50;;;;;;;0.40;0.40;;;;;;;;;;5057312;28;20254;-77
2024/03/11 09:49:19;;;;;;;0.30;0.30;;;;;;;;;;5066784;28;20231;-78
2024/03/11 09:51:47;;;;;;;0.20;0.20;;;;;;;;;;5059597;28;20413;-80
2024/03/11 09:54:16;;;;;;;0.30;0.30;;;;;;;;;;5057419;28;20314;-77
2024/03/11 09:56:45;;;;;;;0.30;0.30;;;;;;;;;;5058159;28;20251;-78
2024/03/11 09:59:20;;;;;;;0.30;0.30;;;;;;;;;;5075641;28;20261;-78
2024/03/11 10:01:54;;;;;;;0.30;0.30;;;;;;;;;;5057196;28;20601;-77
2024/03/11 10:04:26;;;;;;;0.30;0.30;;;;;;;;;;5059652;28;20679;-77
2024/03/11 10:06:57;;;;;;;0.30;0.30;;;;;;;;;;5057146;28;20219;-77
2024/03/11 10:09:28;;;;;;;0.30;0.30;;;;;;;;;;5066444;28;20250;-78
2024/03/11 10:12:09;;;;;;;0.30;0.30;;;;;;;;;;5057205;28;20219;-78
2024/03/11 10:14:38;;;;;;;0.30;0.30;;;;;;;;;;5056500;28;20775;-78
2024/03/11 10:17:26;;;;;;;0.30;0.30;;;;;;;;;;5056845;28;20251;-77
2024/03/11 10:19:56;;;;;;;0.30;0.30;;;;;;;;;;5057727;28;20220;-77
2024/03/11 10:22:23;;;;;;;0.30;0.30;;;;;;;;;;5058474;28;20786;-79
2024/03/11 10:24:57;;;;;;;0.30;0.30;;;;;;;;;;5059090;28;20767;-77
2024/03/11 10:27:31;;;;;;;0.30;0.30;;;;;;;;;;5059295;28;20239;-77
2024/03/11 10:30:20;;;;;;;0.30;0.30;;;;;;;;;;5059187;28;20227;-77
2024/03/11 10:32:57;;;;;;;0.30;0.30;;;;;;;;;;5071765;28;20742;-77
2024/03/11 10:35:28;;;;;;;0.30;0.30;;;;;;;;;;5062930;28;20711;-77
2024/03/11 10:38:08;;;;;;;0.30;0.30;;;;;;;;;;5058565;28;20226;-77
2024/03/11 10:40:38;;;;;;;0.30;0.30;;;;;;;;;;5057078;28;20225;-77
2024/03/11 10:43:21;;;;;;;0.30;0.30;;;;;;;;;;5057246;28;20742;-77
2024/03/11 10:45:48;;;;;;;0.30;0.30;;;;;;;;;;5056606;28;20520;-77
2024/03/11 10:48:15;;;;;;;0.30;0.30;;;;;;;;;;5059923;28;20231;-77
2024/03/11 10:50:42;;;;;;;0.23;0.23;;;;;;;;;;5057360;28;20227;-78
2024/03/11 10:53:21;;;;;;;0.40;0.40;;;;;;;;;;5056726;28;20230;-77
2024/03/11 10:55:57;;;;;;;0.30;0.30;;;;;;;;;;5073952;28;20234;-77
2024/03/11 10:58:26;;;;;;;0.30;0.30;;;;;;;;;;5065464;28;20230;-77
2024/03/11 11:00:55;;;;;;;0.30;0.30;;;;;;;;;;5054150;28;20306;-77
2024/03/11 11:03:23;;;;;;;0.30;0.30;;;;;;;;;;5059290;28;21257;-77
2024/03/11 11:05:56;;;;;;;0.40;0.40;;;;;;;;;;5058015;28;20227;-77
2024/03/11 11:08:29;;;;;;;0.30;0.30;;;;;;;;;;5059513;28;20231;-77
2024/03/11 11:11:01;;;;;;;0.20;0.20;;;;;;;;;;5058639;28;20314;-77
2024/03/11 11:13:31;;;;;;;0.30;0.30;;;;;;;;;;5059466;28;20302;-77
2024/03/11 11:16:00;;;;;;;0.20;0.20;;;;;;;;;;5056326;28;20299;-77
2024/03/11 11:18:34;;;;;;;0.30;0.30;;;;;;;;;;5058843;28;20234;-77
2024/03/11 11:21:08;;;;;;;0.30;0.30;;;;;;;;;;5058319;28;20223;-77
2024/03/11 11:23:35;;;;;;;0.30;0.30;;;;;;;;;;5059112;28;20235;-77
2024/03/11 11:26:03;;;;;;;0.30;0.30;;;;;;;;;;5058484;28;20223;-77
2024/03/11 11:28:37;;;;;;;0.30;0.30;;;;;;;;;;5057944;28;20723;-77
2024/03/11 11:31:32;;;;;;;0.30;0.30;;;;;;;;;;5058437;28;20263;-77
2024/03/11 11:34:02;;;;;;;0.30;0.30;;;;;;;;;;5058515;28;20749;-77
2024/03/11 11:36:29;;;;;;;0.30;0.30;;;;;;;;;;5059192;28;20681;-77
2024/03/11 11:39:17;;;;;;;0.53;0.53;;;;;;;;;;5057444;28;20825;-78
2024/03/11 11:41:45;;;;;;;0.30;0.30;;;;;;;;;;5064392;28;20223;-77
2024/03/11 11:44:39;;;;;;;0.30;0.30;;;;;;;;;;5056872;28;20296;-77
2024/03/11 11:47:13;;;;;;;0.30;0.30;;;;;;;;;;5057074;28;20227;-76
2024/03/11 11:49:42;;;;;;;0.30;0.30;;;;;;;;;;5058341;28;20722;-77
2024/03/11 11:52:13;;;;;;;0.30;0.30;;;;;;;;;;5058404;28;20242;-78
2024/03/11 11:54:41;;;;;;;0.30;0.30;;;;;;;;;;5058735;28;20580;-77
2024/03/11 11:57:21;;;;;;;0.30;0.30;;;;;;;;;;5058048;28;20258;-77
2024/03/11 11:59:52;;;;;;;0.30;0.30;;;;;;;;;;5069365;28;20735;-77
2024/03/11 12:02:20;;;;;;;0.30;0.30;;;;;;;;;;5068790;28;20811;-77
2024/03/11 12:04:49;;;;;;;0.30;0.30;;;;;;;;;;5056799;28;20261;-77
2024/03/11 12:07:23;;;;;;;0.30;0.30;;;;;;;;;;5059000;28;20317;-78
2024/03/11 12:09:56;;;;;;;0.30;0.30;;;;;;;;;;5058580;28;20288;-78
2024/03/11 12:12:33;;;;;;;0.30;0.30;;;;;;;;;;5065002;28;20226;-78
2024/03/11 12:15:01;;;;;;;0.33;0.33;;;;;;;;;;5058261;28;20223;-77
2024/03/11 12:17:30;;;;;;;0.30;0.30;;;;;;;;;;5058501;28;20230;-78
2024/03/11 12:20:25;;;;;;;0.40;0.40;;;;;;;;;;5058410;28;20232;-78
2024/03/11 12:22:55;;;;;;;0.30;0.30;;;;;;;;;;5064349;28;20227;-78
2024/03/11 12:25:22;;;;;;;0.40;0.40;;;;;;;;;;5065013;28;20234;-77
2024/03/11 12:27:54;;;;;;;0.30;0.30;;;;;;;;;;5056765;28;20716;-77
2024/03/11 12:30:27;;;;;;;0.30;0.30;;;;;;;;;;5058689;28;20219;-77
2024/03/11 12:33:04;;;;;;;0.30;0.30;;;;;;;;;;5056674;28;20536;-78
2024/03/11 12:35:36;;;;;;;0.30;0.30;;;;;;;;;;5056444;28;20224;-77
2024/03/11 12:38:07;;;;;;;0.30;0.30;;;;;;;;;;5068876;28;20237;-77
2024/03/11 12:40:34;;;;;;;0.30;0.30;;;;;;;;;;5060867;28;20226;-77
2024/03/11 12:43:21;;;;;;;0.30;0.30;;;;;;;;;;5061780;28;20218;-77
2024/03/11 12:45:54;;;;;;;0.38;0.38;;;;;;;;;;5062295;28;20730;-78
2024/03/11 12:48:22;;;;;;;0.38;0.38;;;;;;;;;;5062786;28;20230;-77
2024/03/11 12:50:53;;;;;;;0.32;0.32;;;;;;;;;;5067856;28;20231;-77
2024/03/11 12:53:24;;;;;;;0.30;0.30;;;;;;;;;;5060547;28;20227;-78
2024/03/11 12:56:05;;;;;;;0.40;0.40;;;;;;;;;;5061934;28;20231;-78
2024/03/11 12:58:39;;;;;;;0.40;0.40;;;;;;;;;;5068100;28;20258;-78
2024/03/11 13:01:16;;;;;;;0.30;0.30;;;;;;;;;;5060799;28;20214;-78
2024/03/11 13:03:46;;;;;;;0.30;0.30;;;;;;;;;;5068124;28;20715;-77
2024/03/11 13:06:18;;;;;;;0.35;0.35;;;;;;;;;;5061883;28;20277;-78
2024/03/11 13:08:45;;;;;;;0.68;0.68;;;;;;;;;;5059856;28;20223;-78
2024/03/11 13:11:16;;;;;;;0.30;0.30;;;;;;;;;;5062354;28;20226;-78
2024/03/11 13:13:42;;;;;;;10.23;0.98;;;;;;;;;;5063416;28;20223;-78
2024/03/11 13:16:14;;;;;;;0.30;0.30;;;;;;;;;;5061955;28;20223;-78
2024/03/11 13:18:41;;;;;;;0.30;0.30;;;;;;;;;;5059746;28;20230;-79
2024/03/11 13:21:08;;;;;;;0.30;0.30;;;;;;;;;;5058978;28;20609;-77
2024/03/11 13:23:37;;;;;;;0.30;0.30;;;;;;;;;;5060980;28;20322;-78
2024/03/11 13:26:09;;;;;;;0.32;0.32;;;;;;;;;;5062016;28;20222;-78
2024/03/11 13:28:36;;;;;;;0.30;0.30;;;;;;;;;;5061385;28;20321;-79
2024/03/11 13:31:03;;;;;;;0.30;0.30;;;;;;;;;;5058972;28;20238;-78
2024/03/11 13:33:41;;;;;;;0.30;0.30;;;;;;;;;;5061748;28;20222;-78
2024/03/11 13:36:09;;;;;;;0.30;0.30;;;;;;;;;;5060415;28;20774;-77
2024/03/11 13:38:37;;;;;;;0.30;0.30;;;;;;;;;;5059551;28;20737;-78
2024/03/11 13:41:03;;;;;;;0.30;0.30;;;;;;;;;;5060005;28;20326;-77
2024/03/11 13:43:32;;;;;;;1.00;0.88;;;;;;;;;;5060246;28;20321;-77
2024/03/11 13:45:59;;;;;;;0.30;0.30;;;;;;;;;;5060837;28;20620;-79
2024/03/11 13:48:27;;;;;;;0.30;0.30;;;;;;;;;;5067352;28;20233;-77
2024/03/11 13:50:56;;;;;;;0.30;0.30;;;;;;;;;;5059500;28;20302;-77
2024/03/11 13:53:22;;;;;;;0.38;0.38;;;;;;;;;;5059773;28;20226;-78
2024/03/11 13:55:49;;;;;;;0.30;0.30;;;;;;;;;;5060005;28;20227;-78
2024/03/11 13:58:17;;;;;;;0.47;0.47;;;;;;;;;;5059706;28;20223;-77
2024/03/11 14:00:47;;;;;;;0.30;0.30;;;;;;;;;;5058979;28;20219;-77
2024/03/11 14:03:19;;;;;;;0.30;0.30;;;;;;;;;;5063324;28;20719;-78
2024/03/11 14:05:46;;;;;;;0.30;0.30;;;;;;;;;;5055335;28;20224;-78
2024/03/11 14:08:13;;;;;;;0.30;0.30;;;;;;;;;;5059269;28;20229;-78
2024/03/11 14:10:42;;;;;;;0.65;0.65;;;;;;;;;;5059068;28;20235;-77
2024/03/11 14:13:09;;;;;;;0.30;0.30;;;;;;;;;;5058480;28;20654;-78
2024/03/11 14:15:35;;;;;;;0.50;0.50;;;;;;;;;;5059302;28;20227;-79
2024/03/11 14:18:04;;;;;;;0.40;0.40;;;;;;;;;;5058233;28;20318;-78
2024/03/11 14:20:31;;;;;;;0.30;0.30;;;;;;;;;;5061032;28;20226;-78
2024/03/11 14:22:58;;;;;;;0.30;0.30;;;;;;;;;;5057022;28;20230;-78
2024/03/11 14:25:26;;;;;;;0.40;0.40;;;;;;;;;;5057628;28;20254;-78
2024/03/11 14:27:52;;;;;;;0.75;0.75;;;;;;;;;;5060894;28;20279;-78
2024/03/11 14:30:24;;;;;;;0.30;0.30;;;;;;;;;;5058515;28;20227;-77
2024/03/11 14:32:52;;;;;;;0.55;0.55;;;;;;;;;;5058328;28;20247;-77
2024/03/11 14:35:20;;;;;;;0.30;0.30;;;;;;;;;;5076215;28;20223;-77
2024/03/11 14:37:47;;;;;;;0.30;0.30;;;;;;;;;;5058756;28;20297;-77
2024/03/11 14:40:29;;;;;;;0.30;0.30;;;;;;;;;;5057439;28;20318;-78
2024/03/11 14:43:00;;;;;;;0.70;0.60;;;;;;;;;;5054102;28;20242;-78
2024/03/11 14:45:30;;;;;;;0.40;0.40;;;;;;;;;;5065742;28;20317;-78
2024/03/11 14:48:01;;;;;;;0.30;0.30;;;;;;;;;;5059152;28;20628;-78
2024/03/11 14:50:29;;;;;;;0.30;0.30;;;;;;;;;;5058720;28;20320;-77
2024/03/11 14:52:57;;;;;;;0.32;0.32;;;;;;;;;;5059298;28;20239;-78
2024/03/11 14:55:36;;;;;;;0.30;0.30;;;;;;;;;;5056653;28;20322;-77